createdAt,value
2022-11-08T00:02:07.345Z,43.15
2022-11-08T00:05:29.529Z,42.03
2022-11-08T00:08:51.781Z,42.83
2022-11-08T00:12:13.937Z,55.72
2022-11-08T00:15:18.091Z,53.63
2022-11-08T00:18:23.256Z,56.20
2022-11-08T00:21:27.440Z,58.08
2022-11-08T00:24:31.164Z,55.22
2022-11-08T00:27:36.315Z,54.00
2022-11-08T00:30:40.025Z,52.88
2022-11-08T00:33:43.454Z,50.90
2022-11-08T00:36:47.165Z,47.05
2022-11-08T00:39:51.429Z,51.08
2022-11-08T00:42:54.642Z,49.70
2022-11-08T00:45:58.718Z,42.78
2022-11-08T00:49:02.358Z,48.28
2022-11-08T00:52:06.359Z,47.72
2022-11-08T00:55:10.070Z,53.58
2022-11-08T00:58:13.857Z,69.05
2022-11-08T01:01:20.461Z,64.13
2022-11-08T01:04:24.466Z,62.15
2022-11-08T01:07:27.795Z,69.10
2022-11-08T01:10:32.007Z,79.15
2022-11-08T01:13:38.866Z,84.72
2022-11-08T01:16:43.329Z,75.07
2022-11-08T01:19:46.375Z,76.07
2022-11-08T01:22:50.252Z,76.18
2022-11-08T01:25:53.790Z,79.82
2022-11-08T01:28:59.454Z,78.72
2022-11-08T01:32:02.719Z,76.25
2022-11-08T01:35:07.017Z,80.80
2022-11-08T01:38:11.029Z,79.57
2022-11-08T01:41:15.812Z,79.75
2022-11-08T01:44:19.476Z,79.53
2022-11-08T01:47:23.457Z,82.22
2022-11-08T01:50:27.153Z,86.55
2022-11-08T01:53:31.427Z,91.97
2022-11-08T01:56:36.675Z,101.22
2022-11-08T01:59:43.748Z,110.22
2022-11-08T02:05:54.375Z,101.95
2022-11-08T02:09:04.025Z,100.47
2022-11-08T02:12:08.927Z,99.38
2022-11-08T02:15:13.926Z,101.75
2022-11-08T02:18:21.182Z,99.82
2022-11-08T02:21:28.860Z,96.85
2022-11-08T02:27:36.445Z,91.53
2022-11-08T02:30:41.955Z,90.50
2022-11-08T02:33:46.413Z,86.10
2022-11-08T02:36:50.457Z,89.30
2022-11-08T02:39:55.043Z,84.28
2022-11-08T02:43:01.788Z,79.40
2022-11-08T02:50:01.842Z,60.55
2022-11-08T02:57:06.879Z,52.35
2022-11-08T03:00:11.590Z,51.22
2022-11-08T03:03:16.200Z,46.92
2022-11-08T03:06:19.356Z,90.10
2022-11-08T03:09:24.913Z,79.60
2022-11-08T03:12:28.444Z,93.70
2022-11-08T03:15:33.140Z,96.80
2022-11-08T03:18:37.243Z,101.10
2022-11-08T03:21:41.870Z,103.53
2022-11-08T03:24:45.739Z,98.10
2022-11-08T03:27:49.259Z,101.88
2022-11-08T03:31:04.124Z,99.20
2022-11-08T03:34:07.944Z,101.95
2022-11-08T03:37:13.134Z,101.75
2022-11-08T03:40:17.231Z,95.80
2022-11-08T03:43:20.695Z,82.22
2022-11-08T03:46:25.494Z,78.40
2022-11-08T03:49:29.251Z,85.60
2022-11-08T03:52:35.313Z,83.30
2022-11-08T03:55:38.885Z,88.18
2022-11-08T03:58:43.254Z,80.30
2022-11-08T04:01:47.639Z,75.18
2022-11-08T04:04:51.795Z,77.95
2022-11-08T04:07:56.227Z,73.55
2022-11-08T04:14:59.001Z,73.20
2022-11-08T04:21:38.755Z,67.72
2022-11-08T04:24:52.769Z,69.97
2022-11-08T04:31:17.406Z,60.25
2022-11-08T04:34:21.683Z,56.63
2022-11-08T04:40:46.304Z,49.90
2022-11-08T04:43:51.792Z,46.90
2022-11-08T04:46:55.750Z,33.65
2022-11-08T04:50:10.386Z,28.52
2022-11-08T04:53:14.610Z,25.45
2022-11-08T04:59:44.169Z,18.63
2022-11-08T05:02:48.597Z,19.88
2022-11-08T05:09:43.046Z,18.75
2022-11-08T05:12:50.955Z,18.58
2022-11-08T05:18:59.533Z,15.57
2022-11-08T05:25:47.320Z,16.10
2022-11-08T05:28:58.351Z,16.85
2022-11-08T05:32:02.503Z,13.07
2022-11-08T05:35:08.344Z,13.85
2022-11-08T05:38:11.966Z,14.30
2022-11-08T05:58:24.399Z,20.23
2022-11-08T06:01:28.360Z,20.83
2022-11-08T06:04:33.991Z,23.92
2022-11-08T06:07:37.712Z,23.67
2022-11-08T06:10:53.346Z,17.33
2022-11-08T06:17:16.821Z,22.45
2022-11-08T06:20:21.700Z,23.92
2022-11-08T06:23:27.140Z,17.58
2022-11-08T06:26:31.194Z,23.15
2022-11-08T06:29:36.005Z,20.27
2022-11-08T06:32:41.849Z,19.42
2022-11-08T06:35:48.736Z,16.58
2022-11-08T06:38:59.303Z,21.15
2022-11-08T06:45:23.412Z,16.10
2022-11-08T06:48:34.057Z,18.25
2022-11-08T06:51:40.853Z,23.58
2022-11-08T06:54:49.065Z,16.60
2022-11-08T07:01:14.404Z,13.27
2022-11-08T07:04:19.239Z,14.25
2022-11-08T07:07:28.467Z,8.82
2022-11-08T07:10:42.142Z,8.25
2022-11-08T07:13:52.684Z,6.93
2022-11-08T07:17:02.783Z,4.30
2022-11-08T07:31:44.513Z,2.30
2022-11-08T07:34:50.383Z,2.50
2022-11-08T07:37:57.044Z,2.22
2022-11-08T07:41:03.200Z,2.38
2022-11-08T07:44:09.781Z,3.22
2022-11-08T07:50:34.505Z,2.53
2022-11-08T07:53:42.299Z,2.75
2022-11-08T07:56:50.010Z,3.20
2022-11-08T07:59:55.761Z,2.08
2022-11-08T08:03:04.628Z,1.60
2022-11-08T08:06:08.881Z,1.75
2022-11-08T08:09:13.190Z,2.50
2022-11-08T08:12:20.659Z,3.00
2022-11-08T08:15:28.201Z,1.50
2022-11-08T08:31:51.157Z,2.35
2022-11-08T09:03:56.396Z,2.60
2022-11-08T09:07:02.665Z,2.03
2022-11-08T09:20:29.605Z,1.52
2022-11-08T09:23:41.321Z,1.95
2022-11-08T09:30:06.897Z,2.90
2022-11-08T09:54:49.324Z,2.33
2022-11-08T09:58:03.684Z,2.72
2022-11-08T10:01:12.064Z,2.05
2022-11-08T10:04:24.975Z,2.45
2022-11-08T10:07:56.178Z,2.00
2022-11-08T10:11:46.952Z,1.30
2022-11-08T10:15:23.669Z,2.30
2022-11-08T10:22:04.476Z,2.47
2022-11-08T10:25:31.186Z,2.58
2022-11-08T10:28:43.116Z,1.70
2022-11-08T10:31:50.998Z,2.25
2022-11-08T10:35:15.215Z,2.28
2022-11-08T10:38:32.677Z,2.60
2022-11-08T10:42:15.008Z,1.83
2022-11-08T10:45:19.218Z,2.60
2022-11-08T10:48:23.337Z,3.17
2022-11-08T10:51:27.210Z,3.67
2022-11-08T10:54:55.861Z,3.30
2022-11-08T10:58:01.737Z,2.42
2022-11-08T11:04:36.672Z,2.58
2022-11-08T11:07:39.890Z,2.63
2022-11-08T11:10:49.295Z,3.40
2022-11-08T11:14:23.691Z,3.00
2022-11-08T11:17:39.083Z,2.70
2022-11-08T11:20:44.484Z,3.08
2022-11-08T11:23:55.888Z,4.20
2022-11-08T11:30:35.130Z,2.85
2022-11-08T11:33:50.142Z,3.65
2022-11-08T11:37:08.988Z,3.67
2022-11-08T11:40:33.593Z,3.50
2022-11-08T11:43:56.787Z,3.53
2022-11-08T11:47:17.481Z,2.85
2022-11-08T11:50:34.264Z,3.22
2022-11-08T11:53:43.541Z,3.05
2022-11-08T11:56:59.630Z,2.92
2022-11-08T12:00:16.081Z,3.38
2022-11-08T12:03:54.321Z,4.22
2022-11-08T12:07:17.728Z,2.75
2022-11-08T12:10:38.830Z,2.55
2022-11-08T12:14:14.520Z,3.50
2022-11-08T12:17:53.033Z,2.58
2022-11-08T12:21:09.383Z,3.53
2022-11-08T12:24:47.501Z,3.17
2022-11-08T12:31:57.645Z,4.20
2022-11-08T12:35:16.125Z,8.80
2022-11-08T12:38:41.520Z,6.22
2022-11-08T12:49:53.640Z,4.97
2022-11-08T12:56:39.409Z,4.70
2022-11-08T12:59:52.463Z,3.53
2022-11-08T13:03:26.523Z,2.08
2022-11-08T13:10:57.918Z,3.00
2022-11-08T13:14:03.596Z,2.50
2022-11-08T13:17:17.998Z,1.98
2022-11-08T13:20:52.065Z,2.15
2022-11-08T13:27:46.374Z,2.67
2022-11-08T13:31:02.394Z,2.80
2022-11-08T13:34:27.761Z,2.78
2022-11-08T13:37:52.245Z,2.03
2022-11-08T13:41:04.095Z,1.88
2022-11-08T13:44:46.256Z,1.55
2022-11-08T13:47:53.940Z,1.17
2022-11-08T13:51:25.065Z,1.80
2022-11-08T13:54:31.555Z,0.90
2022-11-08T13:57:58.733Z,1.33
2022-11-08T14:01:07.003Z,1.75
2022-11-08T14:04:43.077Z,1.95
2022-11-08T14:07:56.799Z,1.38
2022-11-08T14:11:15.428Z,1.38
2022-11-08T14:14:40.783Z,1.70
2022-11-08T14:17:48.321Z,0.90
2022-11-08T14:20:53.755Z,1.67
2022-11-08T14:23:58.110Z,1.05
2022-11-08T14:27:01.936Z,1.10
2022-11-08T14:30:17.565Z,0.98
2022-11-08T14:33:27.724Z,2.00
2022-11-08T14:36:35.268Z,2.25
2022-11-08T14:39:39.717Z,3.17
2022-11-08T14:42:45.593Z,3.75
2022-11-08T14:45:50.105Z,3.17
2022-11-08T14:52:33.142Z,4.47
2022-11-08T14:55:40.036Z,3.33
2022-11-08T14:58:45.404Z,2.05
2022-11-08T15:01:58.481Z,3.22
2022-11-08T15:05:02.826Z,1.98
2022-11-08T15:08:22.965Z,3.67
2022-11-08T15:15:03.943Z,5.78
2022-11-08T15:18:17.190Z,4.30
2022-11-08T15:21:39.332Z,2.70
2022-11-08T15:24:45.608Z,4.55
2022-11-08T15:28:00.001Z,3.08
2022-11-08T15:31:08.681Z,1.77
2022-11-08T15:34:28.675Z,1.83
2022-11-08T15:37:34.340Z,2.00
2022-11-08T15:40:38.842Z,1.13
2022-11-08T15:43:44.399Z,1.88
2022-11-08T15:50:17.632Z,1.33
2022-11-08T15:53:23.278Z,2.55
2022-11-08T15:56:29.425Z,1.63
2022-11-08T15:59:41.234Z,1.40
2022-11-08T16:02:47.290Z,1.73
2022-11-08T16:05:57.346Z,1.70
2022-11-08T16:09:06.166Z,1.20
2022-11-08T16:12:18.074Z,1.27
2022-11-08T16:15:35.195Z,2.05
2022-11-08T16:18:41.662Z,1.85
2022-11-08T16:21:46.701Z,1.77
2022-11-08T16:24:52.196Z,1.80
2022-11-08T16:28:12.862Z,1.60
2022-11-08T16:34:39.615Z,1.20
2022-11-08T16:37:45.997Z,1.35
2022-11-08T16:40:52.457Z,1.30
2022-11-08T16:43:57.437Z,1.23
2022-11-08T16:47:08.579Z,1.30
2022-11-08T16:50:18.744Z,1.10
2022-11-08T16:53:24.718Z,1.60
2022-11-08T16:56:30.666Z,1.45
2022-11-08T17:09:37.320Z,1.42
2022-11-08T17:16:03.459Z,1.60
2022-11-08T17:19:11.142Z,1.37
2022-11-08T17:22:16.088Z,2.07
2022-11-08T17:25:25.743Z,1.85
2022-11-08T17:28:32.820Z,2.40
2022-11-08T17:31:39.615Z,1.75
2022-11-08T17:38:05.859Z,2.72
2022-11-08T17:44:36.114Z,2.25
2022-11-08T17:51:01.659Z,2.78
2022-11-08T17:54:06.600Z,2.20
2022-11-08T18:07:12.054Z,2.42
2022-11-08T18:10:19.704Z,4.25
2022-11-08T18:16:32.137Z,2.38
2022-11-08T18:19:38.396Z,2.58
2022-11-08T18:22:43.745Z,2.75
2022-11-08T18:25:55.752Z,2.92
2022-11-08T18:29:03.745Z,3.47
2022-11-08T18:32:10.126Z,3.03
2022-11-08T18:35:19.041Z,3.20
2022-11-08T18:44:54.244Z,2.20
2022-11-08T18:48:01.416Z,2.50
2022-11-08T18:51:08.720Z,2.78
2022-11-08T18:54:15.696Z,2.28
2022-11-08T18:57:24.932Z,1.65
2022-11-08T19:00:31.504Z,2.10
2022-11-08T19:03:39.729Z,2.63
2022-11-08T19:06:54.399Z,1.58
2022-11-08T19:10:06.081Z,2.40
2022-11-08T19:13:14.298Z,3.00
2022-11-08T19:16:23.013Z,2.65
2022-11-08T19:22:57.125Z,2.33
2022-11-08T19:32:42.476Z,2.25
2022-11-08T19:39:07.912Z,1.73
2022-11-08T19:42:15.419Z,2.42
2022-11-08T19:45:22.747Z,2.22
2022-11-08T19:48:27.740Z,2.35
2022-11-08T19:54:55.436Z,1.10
2022-11-08T19:58:01.809Z,1.60
2022-11-08T20:01:13.744Z,2.23
2022-11-08T20:04:19.872Z,2.10
2022-11-08T20:11:00.681Z,2.85
2022-11-08T20:17:27.450Z,2.95
2022-11-08T20:20:34.506Z,3.42
2022-11-08T20:23:40.569Z,3.67
2022-11-08T20:26:46.553Z,1.73
2022-11-08T20:29:55.872Z,4.10
2022-11-08T20:33:05.621Z,4.70
2022-11-08T20:36:17.313Z,5.07
2022-11-08T20:39:26.491Z,4.85
2022-11-08T20:42:37.638Z,4.43
2022-11-08T20:45:47.374Z,3.13
2022-11-08T20:49:01.562Z,3.88
2022-11-08T20:52:09.953Z,4.10
2022-11-08T20:55:19.292Z,3.53
2022-11-08T20:58:29.340Z,5.68
2022-11-08T21:01:38.739Z,5.28
2022-11-08T21:04:48.441Z,4.10
2022-11-08T21:08:10.749Z,5.13
2022-11-08T21:11:26.363Z,4.95
2022-11-08T21:14:35.702Z,5.97
2022-11-08T21:17:44.214Z,4.80
2022-11-08T21:20:58.493Z,6.63
2022-11-08T21:24:09.657Z,7.40
2022-11-08T21:27:18.490Z,7.55
2022-11-08T21:30:27.608Z,7.55
2022-11-08T21:33:41.467Z,8.18
2022-11-08T21:36:51.117Z,8.18
2022-11-08T21:40:00.860Z,8.48
2022-11-08T21:43:09.472Z,7.75
2022-11-08T21:46:26.299Z,5.93
2022-11-08T21:49:34.714Z,5.50
2022-11-08T21:52:44.667Z,5.18
2022-11-08T21:55:58.511Z,4.22
2022-11-08T21:59:08.268Z,4.85
2022-11-08T22:02:18.522Z,8.77
2022-11-08T22:05:28.366Z,4.75
2022-11-08T22:08:37.197Z,6.57
2022-11-08T22:11:46.646Z,7.25
2022-11-08T22:14:55.476Z,7.72
2022-11-08T22:18:31.215Z,4.50
2022-11-08T22:21:41.788Z,3.03
2022-11-08T22:24:50.509Z,7.03
2022-11-08T22:27:59.951Z,3.47
2022-11-08T22:31:10.317Z,4.47
2022-11-08T22:34:19.662Z,4.57
2022-11-08T22:37:28.902Z,2.72
2022-11-08T22:40:37.817Z,2.25
2022-11-08T22:43:46.863Z,3.65
2022-11-08T22:46:54.142Z,3.60
2022-11-08T22:56:44.185Z,2.85
2022-11-08T22:59:52.608Z,2.55
2022-11-08T23:02:58.844Z,2.15
2022-11-08T23:06:02.334Z,2.40
2022-11-08T23:09:06.596Z,2.63
2022-11-08T23:12:51.984Z,5.30
2022-11-08T23:19:45.262Z,6.05
2022-11-08T23:23:13.029Z,3.95
2022-11-08T23:26:42.032Z,4.07
2022-11-08T23:30:07.469Z,5.28
2022-11-08T23:33:13.212Z,7.72
2022-11-08T23:36:18.806Z,10.32
2022-11-08T23:39:25.531Z,11.10
2022-11-08T23:46:16.048Z,9.13
2022-11-08T23:49:21.807Z,10.02
2022-11-08T23:52:28.800Z,10.32
2022-11-08T23:55:35.677Z,8.82
2022-11-08T23:58:50.966Z,8.52
